Landers, California
Current Conditions -  °F | °C
As of 8:56 AM on Friday 24 Oct 2014 (Local Time) from KNXP Reporting Station
Clear Clear  
Wind Chill: 64°   Ceiling: Unl
Heat Index: 64°   Visibility: 10mi
Dew Point: 37°   Wind: 5mph
Humidity: 37%   Direction: 320°NW
Pressure: 30.16"   Gusts: NA
Location:  34.27°N, 116.39°W
Report Text: KNXP 241556Z 32004KT 10SM CLR 18/03 A3016 RMK AO2 SLP183 T01780028
Loading
Personal Weather Stations






























Interactive Weather Map
Tropical Storm Tracking
New forecast layout! Learn more

10-Day Weather Forecast

Advertisements
Track Severe Weather on mobile